Terminal Aerodrome Forecast
Issued by NWS

Home | Current Version | Previous Version | Text Only | Print | Product List | Glossary On
Versions: 1 2 3 4 5 6 7 8 9 10 11 12 13 14 15 16 17 18 19 20 21 22 23 24 25 26 27 28 29 30 31
000
FTUS44 KLIX 230520
TAFHDC
TAF
KHDC 230520Z 2306/2406 02008KT P6SM VCSH BKN010 BKN018 OVC040
     FM230700 33006KT P6SM VCSH BKN025
     FM231000 34006KT P6SM OVC015
     FM231600 33012G18KT P6SM BKN040=

USA.gov is the U.S. government's official web portal to all federal, state and local government web resources and services.